Time;durP1;ratioP1;P1;durP2;ratioP2;P2;SDS_P1;SDS_P2;PMS_P1;PMS_P2;Temp;Humidity;BMP_temperature;BMP_pressure;BME280_temperature;BME280_humidity;BME280_pressure;Samples;Min_cycle;Max_cycle;Signal;HPM_P1;HPM_P2
2023/04/27 00:01:43;;;;;;;15.63;8.88;;;;;;;;;;5115400;28;20020;-75
2023/04/27 00:04:09;;;;;;;5.13;3.55;;;;;;;;;;5115481;28;20049;-76
2023/04/27 00:06:34;;;;;;;7.07;4.20;;;;;;;;;;5115155;28;20539;-76
2023/04/27 00:08:59;;;;;;;9.73;5.38;;;;;;;;;;5096851;28;20027;-76
2023/04/27 00:11:25;;;;;;;8.23;3.30;;;;;;;;;;5115286;28;20028;-72
2023/04/27 00:13:50;;;;;;;6.50;2.92;;;;;;;;;;5115173;28;20389;-73
2023/04/27 00:16:16;;;;;;;3.95;2.08;;;;;;;;;;5115255;28;20024;-76
2023/04/27 00:18:42;;;;;;;3.30;2.15;;;;;;;;;;5115287;28;20029;-76
2023/04/27 00:21:08;;;;;;;5.10;2.50;;;;;;;;;;5114840;28;20019;-77
2023/04/27 00:23:33;;;;;;;4.30;2.35;;;;;;;;;;5115205;28;20058;-79
2023/04/27 00:25:59;;;;;;;6.25;2.88;;;;;;;;;;5115143;28;20051;-76
2023/04/27 00:28:24;;;;;;;10.55;4.50;;;;;;;;;;5114965;28;20447;-74
2023/04/27 00:30:53;;;;;;;15.05;5.22;;;;;;;;;;5115092;28;20049;-73
2023/04/27 00:33:19;;;;;;;12.27;4.88;;;;;;;;;;5114637;28;20019;-75
2023/04/27 00:35:44;;;;;;;7.63;2.85;;;;;;;;;;5114652;28;20386;-72
2023/04/27 00:38:10;;;;;;;8.07;3.60;;;;;;;;;;5114478;28;20043;-75
2023/04/27 00:40:36;;;;;;;7.05;3.42;;;;;;;;;;5114810;28;20027;-76
2023/04/27 00:43:02;;;;;;;8.60;2.60;;;;;;;;;;5114589;28;20035;-76
2023/04/27 00:45:27;;;;;;;7.53;3.00;;;;;;;;;;5114609;28;20031;-74
2023/04/27 00:47:53;;;;;;;5.63;2.13;;;;;;;;;;5114850;28;20504;-78
2023/04/27 00:50:28;;;;;;;4.35;2.17;;;;;;;;;;5114440;28;20045;-76
2023/04/27 00:52:54;;;;;;;5.57;2.58;;;;;;;;;;5114495;28;20024;-78
2023/04/27 00:55:20;;;;;;;8.15;2.75;;;;;;;;;;5114510;28;20030;-75
2023/04/27 00:57:45;;;;;;;5.53;2.42;;;;;;;;;;5114365;28;20024;-77
2023/04/27 01:00:12;;;;;;;20.38;6.93;;;;;;;;;;5114394;28;20031;-77
2023/04/27 01:02:38;;;;;;;27.70;8.82;;;;;;;;;;5114226;28;20386;-76
2023/04/27 01:05:04;;;;;;;36.13;12.65;;;;;;;;;;5113886;28;20038;-71
2023/04/27 01:07:30;;;;;;;30.30;10.73;;;;;;;;;;5114084;28;20023;-74
2023/04/27 01:09:55;;;;;;;27.05;9.13;;;;;;;;;;5113775;28;20386;-76
2023/04/27 01:12:21;;;;;;;20.23;8.02;;;;;;;;;;5114011;28;20470;-72
2023/04/27 01:14:46;;;;;;;13.57;4.50;;;;;;;;;;5113928;28;20031;-75
2023/04/27 01:17:13;;;;;;;6.97;2.70;;;;;;;;;;5113786;28;20027;-75
2023/04/27 01:19:39;;;;;;;8.85;2.78;;;;;;;;;;5113643;28;20428;-73
2023/04/27 01:22:07;;;;;;;6.10;2.92;;;;;;;;;;5113955;28;20028;-74
2023/04/27 01:24:32;;;;;;;14.75;3.67;;;;;;;;;;5113877;28;20023;-74
2023/04/27 01:26:57;;;;;;;6.20;3.15;;;;;;;;;;5113685;28;20099;-72
2023/04/27 01:29:23;;;;;;;5.28;2.45;;;;;;;;;;5113631;28;20047;-76
2023/04/27 01:31:48;;;;;;;4.60;2.25;;;;;;;;;;5113583;28;20488;-75
2023/04/27 01:34:14;;;;;;;5.65;2.50;;;;;;;;;;5113339;28;20125;-74
2023/04/27 01:36:39;;;;;;;7.40;2.72;;;;;;;;;;5113129;28;20501;-74
2023/04/27 01:39:08;;;;;;;4.03;2.70;;;;;;;;;;5113379;28;20474;-75
2023/04/27 01:41:35;;;;;;;6.82;2.65;;;;;;;;;;5113506;28;20023;-74
2023/04/27 01:44:00;;;;;;;5.55;2.00;;;;;;;;;;5113497;28;20652;-74
2023/04/27 01:46:26;;;;;;;5.25;2.13;;;;;;;;;;5095088;28;20106;-71
2023/04/27 01:48:51;;;;;;;3.33;2.03;;;;;;;;;;5113131;28;20035;-77
2023/04/27 01:51:16;;;;;;;3.20;2.13;;;;;;;;;;5113281;28;20071;-73
2023/04/27 01:53:42;;;;;;;3.85;2.10;;;;;;;;;;5113241;28;20035;-73
2023/04/27 01:56:09;;;;;;;7.07;2.17;;;;;;;;;;5113181;28;20374;-74
2023/04/27 01:58:34;;;;;;;4.70;2.10;;;;;;;;;;5113350;28;20030;-75
2023/04/27 02:01:00;;;;;;;5.18;1.98;;;;;;;;;;5113150;28;20027;-74
2023/04/27 02:03:25;;;;;;;4.63;2.22;;;;;;;;;;5112789;28;20028;-74
2023/04/27 02:05:51;;;;;;;3.22;1.85;;;;;;;;;;5112990;28;20355;-74
2023/04/27 02:08:16;;;;;;;6.38;1.90;;;;;;;;;;5112877;28;20115;-74
2023/04/27 02:10:41;;;;;;;6.18;2.15;;;;;;;;;;5113119;28;20031;-75
2023/04/27 02:13:08;;;;;;;3.35;2.22;;;;;;;;;;5113004;28;20039;-73
2023/04/27 02:15:34;;;;;;;4.68;2.08;;;;;;;;;;5112907;28;20031;-72
2023/04/27 02:17:59;;;;;;;4.60;2.40;;;;;;;;;;5111599;28;20023;-69
2023/04/27 02:20:25;;;;;;;5.65;2.30;;;;;;;;;;5112311;28;20417;-74
2023/04/27 02:22:52;;;;;;;5.22;2.50;;;;;;;;;;5112134;28;20039;-75
2023/04/27 02:25:18;;;;;;;8.32;2.25;;;;;;;;;;5112813;28;20115;-73
2023/04/27 02:27:43;;;;;;;3.78;2.33;;;;;;;;;;5112906;28;20106;-71
2023/04/27 02:30:13;;;;;;;4.07;2.50;;;;;;;;;;5112831;28;20023;-68
2023/04/27 02:32:40;;;;;;;4.82;2.40;;;;;;;;;;5112429;28;20118;-73
2023/04/27 02:35:06;;;;;;;7.85;2.55;;;;;;;;;;5092267;28;20093;-74
2023/04/27 02:37:32;;;;;;;5.45;2.70;;;;;;;;;;5106937;28;20387;-75
2023/04/27 02:39:58;;;;;;;6.28;2.30;;;;;;;;;;5112697;28;20023;-68
2023/04/27 02:42:23;;;;;;;4.53;2.03;;;;;;;;;;5112581;28;20081;-74
2023/04/27 02:44:49;;;;;;;8.52;2.90;;;;;;;;;;5112496;28;20024;-75
2023/04/27 02:47:14;;;;;;;3.60;2.30;;;;;;;;;;5112540;28;20023;-72
2023/04/27 02:49:40;;;;;;;6.60;2.30;;;;;;;;;;5112611;28;20031;-76
2023/04/27 02:52:06;;;;;;;7.65;2.53;;;;;;;;;;5094487;28;20024;-67
2023/04/27 02:54:32;;;;;;;6.93;2.22;;;;;;;;;;5112585;28;20019;-74
2023/04/27 02:56:57;;;;;;;6.40;2.60;;;;;;;;;;5112401;28;20389;-68
2023/04/27 02:59:22;;;;;;;7.80;2.63;;;;;;;;;;5112222;28;20111;-70
2023/04/27 03:01:48;;;;;;;6.68;2.33;;;;;;;;;;5112421;28;20027;-70
2023/04/27 03:04:13;;;;;;;7.68;3.25;;;;;;;;;;5112476;28;20019;-71
2023/04/27 03:06:40;;;;;;;5.75;2.63;;;;;;;;;;5111981;28;20110;-72
2023/04/27 03:09:05;;;;;;;6.65;2.58;;;;;;;;;;5112136;28;20573;-74
2023/04/27 03:11:31;;;;;;;6.25;2.10;;;;;;;;;;5112533;28;20106;-72
2023/04/27 03:13:56;;;;;;;6.35;2.40;;;;;;;;;;5112169;28;20138;-67
2023/04/27 03:16:22;;;;;;;9.25;2.63;;;;;;;;;;5112370;28;20027;-70
2023/04/27 03:18:47;;;;;;;6.13;2.58;;;;;;;;;;5112249;28;20020;-74
2023/04/27 03:21:13;;;;;;;4.25;2.38;;;;;;;;;;5112023;28;20039;-64
2023/04/27 03:23:38;;;;;;;4.57;2.10;;;;;;;;;;5112277;28;20030;-75
2023/04/27 03:26:08;;;;;;;6.53;2.33;;;;;;;;;;5112035;28;20081;-71
2023/04/27 03:28:34;;;;;;;7.68;3.30;;;;;;;;;;5111890;28;20032;-75
2023/04/27 03:31:03;;;;;;;4.55;2.38;;;;;;;;;;5112069;28;20076;-74
2023/04/27 03:33:29;;;;;;;5.03;2.63;;;;;;;;;;5114228;28;20039;-77
2023/04/27 03:35:56;;;;;;;8.20;2.50;;;;;;;;;;5115563;28;20020;-74
2023/04/27 03:38:22;;;;;;;3.95;2.15;;;;;;;;;;5115988;28;20501;-74
2023/04/27 03:40:47;;;;;;;5.93;2.97;;;;;;;;;;5115541;28;20031;-73
2023/04/27 03:43:12;;;;;;;4.50;2.42;;;;;;;;;;5115517;28;20103;-74
2023/04/27 03:45:38;;;;;;;5.97;2.53;;;;;;;;;;5115642;28;20019;-74
2023/04/27 03:48:04;;;;;;;4.13;2.42;;;;;;;;;;5115789;28;20023;-74
2023/04/27 03:50:29;;;;;;;6.90;2.97;;;;;;;;;;5115645;28;20458;-76
2023/04/27 03:52:55;;;;;;;5.88;2.63;;;;;;;;;;5115443;28;20112;-75
2023/04/27 03:55:20;;;;;;;7.78;2.78;;;;;;;;;;5115571;28;20031;-74
2023/04/27 03:57:46;;;;;;;6.78;2.60;;;;;;;;;;5115095;28;20030;-75
2023/04/27 04:00:11;;;;;;;4.97;2.47;;;;;;;;;;5115595;28;20486;-75
2023/04/27 04:02:38;;;;;;;6.70;2.40;;;;;;;;;;5115179;28;20490;-74
2023/04/27 04:05:04;;;;;;;10.13;2.50;;;;;;;;;;5114976;28;20023;-75
2023/04/27 04:07:29;;;;;;;6.72;2.65;;;;;;;;;;5115131;28;20383;-75
2023/04/27 04:09:55;;;;;;;5.13;2.38;;;;;;;;;;5114857;28;20039;-72
2023/04/27 04:12:20;;;;;;;6.97;2.53;;;;;;;;;;5114829;28;20026;-73
2023/04/27 04:14:47;;;;;;;3.40;2.05;;;;;;;;;;5115058;28;20062;-70
2023/04/27 04:17:13;;;;;;;5.28;2.20;;;;;;;;;;5114907;28;20126;-75
2023/04/27 04:19:39;;;;;;;8.73;2.88;;;;;;;;;;5114724;28;20501;-74
2023/04/27 04:22:04;;;;;;;6.38;2.70;;;;;;;;;;5115090;28;20055;-75
2023/04/27 04:24:30;;;;;;;4.75;2.35;;;;;;;;;;5115037;28;20020;-75
2023/04/27 04:26:55;;;;;;;4.03;2.45;;;;;;;;;;5114345;28;20028;-73
2023/04/27 04:29:22;;;;;;;6.13;2.63;;;;;;;;;;5114545;28;20482;-73
2023/04/27 04:31:47;;;;;;;4.70;2.55;;;;;;;;;;5114629;28;20016;-74
2023/04/27 04:34:13;;;;;;;4.45;2.55;;;;;;;;;;5114725;28;20136;-75
2023/04/27 04:36:39;;;;;;;9.73;2.55;;;;;;;;;;5114365;28;20063;-72
2023/04/27 04:39:05;;;;;;;9.48;2.63;;;;;;;;;;5114527;28;20035;-74
2023/04/27 04:41:31;;;;;;;11.38;2.90;;;;;;;;;;5113769;28;20028;-74
2023/04/27 04:43:56;;;;;;;7.47;2.33;;;;;;;;;;5114013;28;20153;-75
2023/04/27 04:46:23;;;;;;;4.10;2.38;;;;;;;;;;5114049;28;20036;-75
2023/04/27 04:48:49;;;;;;;5.22;2.25;;;;;;;;;;5114408;28;20039;-72
2023/04/27 04:51:15;;;;;;;6.35;2.78;;;;;;;;;;5114269;28;20055;-72
2023/04/27 04:53:41;;;;;;;6.68;2.33;;;;;;;;;;5114163;28;20050;-71
2023/04/27 04:56:10;;;;;;;8.50;3.20;;;;;;;;;;5114048;28;20080;-71
2023/04/27 04:58:36;;;;;;;6.05;2.65;;;;;;;;;;5114060;28;20024;-73
2023/04/27 05:01:01;;;;;;;4.80;2.22;;;;;;;;;;5113918;28;20035;-72
2023/04/27 05:03:27;;;;;;;6.43;2.40;;;;;;;;;;5114040;28;20059;-73
2023/04/27 05:05:52;;;;;;;4.60;2.10;;;;;;;;;;5113884;28;20020;-74
2023/04/27 05:08:18;;;;;;;10.73;2.65;;;;;;;;;;5114165;28;20469;-75
2023/04/27 05:10:50;;;;;;;6.70;2.47;;;;;;;;;;5113817;28;20019;-69
2023/04/27 05:13:16;;;;;;;7.90;2.80;;;;;;;;;;5113572;28;20023;-73
2023/04/27 05:15:41;;;;;;;13.13;2.90;;;;;;;;;;5113191;28;20443;-66
2023/04/27 05:18:07;;;;;;;8.27;2.53;;;;;;;;;;5113980;28;20096;-74
2023/04/27 05:20:36;;;;;;;8.13;2.70;;;;;;;;;;5113809;28;20051;-73
2023/04/27 05:23:01;;;;;;;6.22;2.28;;;;;;;;;;5113505;28;20110;-75
2023/04/27 05:25:33;;;;;;;6.10;2.20;;;;;;;;;;5113366;28;20104;-74
2023/04/27 05:27:59;;;;;;;7.93;2.72;;;;;;;;;;5113534;28;20020;-74
2023/04/27 05:30:26;;;;;;;9.35;2.97;;;;;;;;;;5095302;28;20118;-76
2023/04/27 05:32:51;;;;;;;7.40;2.75;;;;;;;;;;5113249;28;20161;-67
2023/04/27 05:35:16;;;;;;;27.88;3.60;;;;;;;;;;5112878;28;20118;-73
2023/04/27 05:37:42;;;;;;;9.93;2.30;;;;;;;;;;5091574;28;20055;-76
2023/04/27 05:40:08;;;;;;;12.68;2.40;;;;;;;;;;5093020;28;20031;-71
2023/04/27 05:42:34;;;;;;;8.93;2.95;;;;;;;;;;5092931;28;20069;-69
2023/04/27 05:45:00;;;;;;;8.20;2.70;;;;;;;;;;5092674;28;20359;-72
2023/04/27 05:47:26;;;;;;;9.43;2.97;;;;;;;;;;5092848;28;20027;-69
2023/04/27 05:49:51;;;;;;;8.27;2.70;;;;;;;;;;5113098;28;20043;-65
2023/04/27 05:52:20;;;;;;;8.10;2.63;;;;;;;;;;5112336;28;20020;-65
2023/04/27 05:54:49;;;;;;;6.30;2.13;;;;;;;;;;5095088;28;20063;-70
2023/04/27 05:57:15;;;;;;;8.68;2.78;;;;;;;;;;5112831;28;20486;-63
2023/04/27 05:59:41;;;;;;;10.40;3.10;;;;;;;;;;5112972;28;20038;-71
2023/04/27 06:02:08;;;;;;;9.35;2.58;;;;;;;;;;5113102;28;20024;-70
2023/04/27 06:04:34;;;;;;;7.35;3.17;;;;;;;;;;5112981;28;20020;-67
2023/04/27 06:07:00;;;;;;;7.15;2.72;;;;;;;;;;5112828;28;20032;-72
2023/04/27 06:09:25;;;;;;;11.07;2.60;;;;;;;;;;5094200;28;20101;-65
2023/04/27 06:11:50;;;;;;;9.13;2.70;;;;;;;;;;5113002;28;20034;-76
2023/04/27 06:14:16;;;;;;;5.35;2.78;;;;;;;;;;5112961;28;20023;-71
2023/04/27 06:16:42;;;;;;;10.13;2.92;;;;;;;;;;5112911;28;20381;-73
2023/04/27 06:19:07;;;;;;;10.90;2.80;;;;;;;;;;5112460;28;20394;-75
2023/04/27 06:21:33;;;;;;;15.20;3.47;;;;;;;;;;5112640;28;20452;-76
2023/04/27 06:23:59;;;;;;;12.13;3.22;;;;;;;;;;5112725;28;20020;-74
2023/04/27 06:26:25;;;;;;;8.23;2.42;;;;;;;;;;5112682;28;20032;-75
2023/04/27 06:28:51;;;;;;;5.03;2.10;;;;;;;;;;5112473;28;20028;-75
2023/04/27 06:31:16;;;;;;;5.30;2.08;;;;;;;;;;5094217;28;20052;-75
2023/04/27 06:33:42;;;;;;;6.75;2.42;;;;;;;;;;5112412;28;20024;-75
2023/04/27 06:36:08;;;;;;;7.80;2.47;;;;;;;;;;5094003;28;20051;-74
2023/04/27 06:38:33;;;;;;;5.07;2.25;;;;;;;;;;5112339;28;20111;-76
2023/04/27 06:40:58;;;;;;;5.82;2.58;;;;;;;;;;5112565;28;20462;-75
2023/04/27 06:43:24;;;;;;;8.85;2.15;;;;;;;;;;5112615;28;20042;-72
2023/04/27 06:45:50;;;;;;;13.80;3.65;;;;;;;;;;5112375;28;20034;-75
2023/04/27 06:48:15;;;;;;;5.57;1.80;;;;;;;;;;5112568;28;20103;-73
2023/04/27 06:50:42;;;;;;;6.72;3.75;;;;;;;;;;5112282;28;20034;-74
2023/04/27 06:53:08;;;;;;;6.82;3.03;;;;;;;;;;5111938;28;20031;-75
2023/04/27 06:55:33;;;;;;;13.05;3.47;;;;;;;;;;5112095;28;20032;-73
2023/04/27 06:57:59;;;;;;;5.22;2.15;;;;;;;;;;5112398;28;20023;-71
2023/04/27 07:00:25;;;;;;;9.55;2.08;;;;;;;;;;5112262;28;20055;-72
2023/04/27 07:02:51;;;;;;;10.77;3.90;;;;;;;;;;5112264;28;20081;-72
2023/04/27 07:05:17;;;;;;;4.28;1.92;;;;;;;;;;5112100;28;20080;-74
2023/04/27 07:07:43;;;;;;;13.57;3.58;;;;;;;;;;5112909;28;20053;-73
2023/04/27 07:10:09;;;;;;;8.55;2.15;;;;;;;;;;5116752;28;20023;-70
2023/04/27 07:12:34;;;;;;;12.60;3.10;;;;;;;;;;5115870;28;20024;-77
2023/04/27 07:15:01;;;;;;;5.93;2.05;;;;;;;;;;5116070;28;20035;-71
2023/04/27 07:17:27;;;;;;;5.82;2.10;;;;;;;;;;5116284;28;20424;-77
2023/04/27 07:19:52;;;;;;;6.45;2.10;;;;;;;;;;5116344;28;20015;-76
2023/04/27 07:22:18;;;;;;;3.15;1.50;;;;;;;;;;5115993;28;20039;-76
2023/04/27 07:24:44;;;;;;;11.00;2.10;;;;;;;;;;5116078;28;20542;-65
2023/04/27 07:27:10;;;;;;;4.00;1.60;;;;;;;;;;5115826;28;20106;-75
2023/04/27 07:29:36;;;;;;;4.35;1.80;;;;;;;;;;5116009;28;20028;-74
2023/04/27 07:32:05;;;;;;;10.25;2.20;;;;;;;;;;5115972;28;20059;-76
2023/04/27 07:34:30;;;;;;;10.65;1.80;;;;;;;;;;5115755;28;20032;-75
2023/04/27 07:36:56;;;;;;;3.75;1.88;;;;;;;;;;5114898;28;20389;-76
2023/04/27 07:39:21;;;;;;;4.65;1.95;;;;;;;;;;5115941;28;20023;-69
2023/04/27 07:41:47;;;;;;;3.78;1.88;;;;;;;;;;5112673;28;20030;-73
2023/04/27 07:44:12;;;;;;;4.25;1.80;;;;;;;;;;5105595;28;20055;-74
2023/04/27 07:46:38;;;;;;;5.93;1.70;;;;;;;;;;5095117;28;20420;-72
2023/04/27 07:49:03;;;;;;;5.32;1.65;;;;;;;;;;5097713;28;20031;-74
2023/04/27 07:51:28;;;;;;;3.92;1.50;;;;;;;;;;5095008;28;20039;-71
2023/04/27 07:53:54;;;;;;;6.40;1.67;;;;;;;;;;5095114;28;20028;-73
2023/04/27 07:56:20;;;;;;;6.03;1.40;;;;;;;;;;5095120;28;20024;-75
2023/04/27 07:58:45;;;;;;;3.63;1.58;;;;;;;;;;5109948;28;20102;-74
2023/04/27 08:01:11;;;;;;;3.75;1.80;;;;;;;;;;5115188;28;20023;-71
2023/04/27 08:03:36;;;;;;;3.28;1.27;;;;;;;;;;5114396;28;20032;-71
2023/04/27 08:06:03;;;;;;;5.05;2.20;;;;;;;;;;5114941;28;20491;-73
2023/04/27 08:08:29;;;;;;;2.95;1.30;;;;;;;;;;5114132;28;20031;-73
2023/04/27 08:10:54;;;;;;;5.70;1.50;;;;;;;;;;5115093;28;20023;-74
2023/04/27 08:13:20;;;;;;;9.10;1.77;;;;;;;;;;5115094;28;20059;-70
2023/04/27 08:15:45;;;;;;;8.70;1.63;;;;;;;;;;5115190;28;20028;-70
2023/04/27 08:18:10;;;;;;;5.22;1.98;;;;;;;;;;5115125;28;20114;-73
2023/04/27 08:20:36;;;;;;;3.65;1.73;;;;;;;;;;5110920;28;20383;-75
2023/04/27 08:23:01;;;;;;;7.00;1.80;;;;;;;;;;5112362;28;20406;-71
2023/04/27 08:25:27;;;;;;;6.60;1.77;;;;;;;;;;5113858;28;20023;-63
2023/04/27 08:27:52;;;;;;;6.60;1.23;;;;;;;;;;5112462;28;20024;-75
2023/04/27 08:30:17;;;;;;;5.95;1.50;;;;;;;;;;5113287;28;20020;-65
2023/04/27 08:32:43;;;;;;;6.35;1.40;;;;;;;;;;5114490;28;20027;-68
2023/04/27 08:35:09;;;;;;;136.52;10.77;;;;;;;;;;5114224;28;20023;-75
2023/04/27 08:37:34;;;;;;;8.18;1.50;;;;;;;;;;5114571;28;20039;-72
2023/04/27 08:40:03;;;;;;;9.95;2.70;;;;;;;;;;5114315;28;20463;-72
2023/04/27 08:42:30;;;;;;;13.35;2.22;;;;;;;;;;5111786;28;20039;-74
2023/04/27 08:44:55;;;;;;;7.30;1.50;;;;;;;;;;5094027;28;20039;-71
2023/04/27 08:47:20;;;;;;;13.45;1.70;;;;;;;;;;5108300;28;20034;-75
2023/04/27 08:49:46;;;;;;;13.35;1.67;;;;;;;;;;5114314;28;20034;-71
2023/04/27 08:52:13;;;;;;;7.35;1.70;;;;;;;;;;5114218;28;20023;-69
2023/04/27 08:54:39;;;;;;;6.43;1.52;;;;;;;;;;5114366;28;20026;-74
2023/04/27 08:57:09;;;;;;;3.42;1.48;;;;;;;;;;5079150;28;20433;-73
2023/04/27 08:59:35;;;;;;;3.13;1.10;;;;;;;;;;5114376;28;20055;-74
2023/04/27 09:02:00;;;;;;;7.50;1.60;;;;;;;;;;5113975;28;20031;-72
2023/04/27 09:04:36;;;;;;;5.93;1.60;;;;;;;;;;5114155;28;20077;-75
2023/04/27 09:07:12;;;;;;;25.42;3.15;;;;;;;;;;5113944;28;20490;-74
2023/04/27 09:09:37;;;;;;;35.92;4.55;;;;;;;;;;5113891;28;20028;-72
2023/04/27 09:12:17;;;;;;;7.47;1.58;;;;;;;;;;5114166;28;20114;-75
2023/04/27 09:14:54;;;;;;;6.50;1.88;;;;;;;;;;5113969;28;20062;-75
2023/04/27 09:17:24;;;;;;;8.10;1.77;;;;;;;;;;5113792;28;20168;-75
2023/04/27 09:19:49;;;;;;;12.15;1.83;;;;;;;;;;5113972;28;20023;-75
2023/04/27 09:22:15;;;;;;;6.60;2.00;;;;;;;;;;5113778;28;20035;-70
2023/04/27 09:24:51;;;;;;;7.82;1.60;;;;;;;;;;5113621;28;20024;-74
2023/04/27 09:27:20;;;;;;;8.27;1.40;;;;;;;;;;5113548;28;20034;-75
2023/04/27 09:29:46;;;;;;;4.90;1.55;;;;;;;;;;5113262;28;20416;-75
2023/04/27 09:32:16;;;;;;;15.05;1.77;;;;;;;;;;5112815;28;20023;-75
2023/04/27 09:34:42;;;;;;;4.00;1.67;;;;;;;;;;5113478;28;20038;-75
2023/04/27 09:37:09;;;;;;;10.80;1.95;;;;;;;;;;5113267;28;20047;-78
2023/04/27 09:39:35;;;;;;;2.10;1.00;;;;;;;;;;5113495;28;20027;-74
2023/04/27 09:42:03;;;;;;;5.38;1.20;;;;;;;;;;5113316;28;20032;-69
2023/04/27 09:44:29;;;;;;;4.35;1.42;;;;;;;;;;5113047;28;20085;-76
2023/04/27 09:46:57;;;;;;;6.50;1.80;;;;;;;;;;5113009;28;20114;-74
2023/04/27 09:49:25;;;;;;;3.78;1.70;;;;;;;;;;5113381;28;20114;-75
2023/04/27 09:51:53;;;;;;;9.48;1.70;;;;;;;;;;5113075;28;20035;-73
2023/04/27 09:54:21;;;;;;;4.00;1.40;;;;;;;;;;5113091;28;20096;-76
2023/04/27 09:57:01;;;;;;;9.48;1.70;;;;;;;;;;5095061;28;20023;-76
2023/04/27 09:59:39;;;;;;;4.88;1.30;;;;;;;;;;5113345;28;20059;-74
2023/04/27 10:02:05;;;;;;;3.75;1.77;;;;;;;;;;5105123;28;20032;-72
2023/04/27 10:04:36;;;;;;;4.63;1.70;;;;;;;;;;5092544;28;20368;-74
2023/04/27 10:07:14;;;;;;;5.30;1.50;;;;;;;;;;5092383;28;20028;-75
2023/04/27 10:09:41;;;;;;;3.83;1.58;;;;;;;;;;5108129;28;20496;-70
2023/04/27 10:12:16;;;;;;;2.65;1.08;;;;;;;;;;5113186;28;20046;-75
2023/04/27 10:14:50;;;;;;;4.45;1.48;;;;;;;;;;5112606;28;20020;-73
2023/04/27 10:17:16;;;;;;;2.13;1.20;;;;;;;;;;5112830;28;20080;-76
2023/04/27 10:19:53;;;;;;;7.93;1.75;;;;;;;;;;5112788;28;20019;-75
2023/04/27 10:22:19;;;;;;;3.40;1.38;;;;;;;;;;5112962;28;20092;-74
2023/04/27 10:24:48;;;;;;;5.97;1.33;;;;;;;;;;5112799;28;20034;-76
2023/04/27 10:27:18;;;;;;;6.93;1.30;;;;;;;;;;5112200;28;20031;-68
2023/04/27 10:29:45;;;;;;;10.52;1.83;;;;;;;;;;5112138;28;20031;-73
2023/04/27 10:32:17;;;;;;;6.53;1.55;;;;;;;;;;5112555;28;20467;-76
2023/04/27 10:34:46;;;;;;;4.22;1.40;;;;;;;;;;5112550;28;20047;-75
2023/04/27 10:37:12;;;;;;;3.80;1.60;;;;;;;;;;5112145;28;20047;-76
2023/04/27 10:39:40;;;;;;;5.03;1.35;;;;;;;;;;5112527;28;20035;-76
2023/04/27 10:42:06;;;;;;;5.30;1.10;;;;;;;;;;5112692;28;20055;-74
2023/04/27 10:44:34;;;;;;;3.53;1.40;;;;;;;;;;5116503;28;20030;-74
2023/04/27 10:47:10;;;;;;;1.90;1.00;;;;;;;;;;5116319;28;20461;-75
2023/04/27 10:49:37;;;;;;;5.47;1.65;;;;;;;;;;5116804;28;20070;-75
2023/04/27 10:52:03;;;;;;;2.70;1.15;;;;;;;;;;5116676;28;20404;-71
2023/04/27 10:54:30;;;;;;;5.30;1.23;;;;;;;;;;5116608;28;20011;-74
2023/04/27 10:57:04;;;;;;;6.90;1.75;;;;;;;;;;5116530;28;20036;-69
2023/04/27 10:59:30;;;;;;;2.50;1.45;;;;;;;;;;5116523;28;20106;-73
2023/04/27 11:01:55;;;;;;;5.22;1.45;;;;;;;;;;5116542;28;20127;-71
2023/04/27 11:04:21;;;;;;;3.38;1.23;;;;;;;;;;5116354;28;20023;-74
2023/04/27 11:06:46;;;;;;;7.78;1.52;;;;;;;;;;5116480;28;20501;-72
2023/04/27 11:09:28;;;;;;;4.78;1.30;;;;;;;;;;5116209;28;20119;-72
2023/04/27 11:11:53;;;;;;;4.95;1.45;;;;;;;;;;5116098;28;20028;-76
2023/04/27 11:14:20;;;;;;;5.28;1.65;;;;;;;;;;5116149;28;20047;-74
2023/04/27 11:16:46;;;;;;;6.88;2.00;;;;;;;;;;5116256;28;20027;-75
2023/04/27 11:19:12;;;;;;;9.82;2.83;;;;;;;;;;5116242;28;20019;-74
2023/04/27 11:21:38;;;;;;;5.05;1.80;;;;;;;;;;5116247;28;20394;-75
2023/04/27 11:24:07;;;;;;;8.82;2.22;;;;;;;;;;5116214;28;20043;-71
2023/04/27 11:26:33;;;;;;;8.93;6.35;;;;;;;;;;5116172;28;20057;-76
2023/04/27 11:29:08;;;;;;;23.13;3.10;;;;;;;;;;5115415;28;20108;-74
2023/04/27 11:31:47;;;;;;;4.85;1.90;;;;;;;;;;5116004;28;20019;-75
2023/04/27 11:34:18;;;;;;;4.72;1.65;;;;;;;;;;5115730;28;20040;-76
2023/04/27 11:36:55;;;;;;;4.35;1.20;;;;;;;;;;5113798;28;20072;-76
2023/04/27 11:39:21;;;;;;;3.25;1.20;;;;;;;;;;5113081;28;20031;-75
2023/04/27 11:41:47;;;;;;;3.75;1.30;;;;;;;;;;5115410;28;20051;-74
2023/04/27 11:44:12;;;;;;;5.72;1.42;;;;;;;;;;5110631;28;20465;-73
2023/04/27 11:46:39;;;;;;;8.30;1.65;;;;;;;;;;5103755;28;20024;-75
2023/04/27 11:49:07;;;;;;;7.20;1.77;;;;;;;;;;5108439;28;20078;-73
2023/04/27 11:51:34;;;;;;;3.05;1.50;;;;;;;;;;5116047;28;20080;-74
2023/04/27 11:54:05;;;;;;;6.57;1.60;;;;;;;;;;5115953;28;20024;-78
2023/04/27 11:56:35;;;;;;;3.35;1.90;;;;;;;;;;5115615;28;20034;-75
2023/04/27 11:59:01;;;;;;;3.28;1.30;;;;;;;;;;5115893;28;20038;-73
2023/04/27 12:01:27;;;;;;;4.10;1.55;;;;;;;;;;5115993;28;20024;-74
2023/04/27 12:03:52;;;;;;;5.85;1.50;;;;;;;;;;5115808;28;20026;-69
2023/04/27 12:06:23;;;;;;;3.50;1.60;;;;;;;;;;5115186;28;20414;-77
2023/04/27 12:08:49;;;;;;;5.53;2.38;;;;;;;;;;5115401;28;20031;-75
2023/04/27 12:11:15;;;;;;;3.58;1.38;;;;;;;;;;5115345;28;20393;-77
2023/04/27 12:13:41;;;;;;;5.07;2.03;;;;;;;;;;5115394;28;20027;-74
2023/04/27 12:16:06;;;;;;;6.03;1.20;;;;;;;;;;5115629;28;20482;-80
2023/04/27 12:18:31;;;;;;;2.83;1.08;;;;;;;;;;5115472;28;20016;-74
2023/04/27 12:20:57;;;;;;;5.97;1.23;;;;;;;;;;5112904;28;20028;-67
2023/04/27 12:23:23;;;;;;;3.33;1.13;;;;;;;;;;5115347;28;20020;-79
2023/04/27 12:25:48;;;;;;;17.00;2.40;;;;;;;;;;5095950;28;20068;-79
2023/04/27 12:28:17;;;;;;;4.40;1.15;;;;;;;;;;5115477;28;20466;-77
2023/04/27 12:30:43;;;;;;;5.20;1.60;;;;;;;;;;5115486;28;20019;-75
2023/04/27 12:33:10;;;;;;;2.80;1.08;;;;;;;;;;5113906;28;20046;-74
2023/04/27 12:35:36;;;;;;;4.53;1.25;;;;;;;;;;5113005;28;20456;-78
2023/04/27 12:38:02;;;;;;;8.45;1.55;;;;;;;;;;5112928;28;20180;-79
2023/04/27 12:40:28;;;;;;;5.53;1.80;;;;;;;;;;5112865;28;20016;-74
2023/04/27 12:42:53;;;;;;;13.52;3.97;;;;;;;;;;5113243;28;20355;-76
2023/04/27 12:45:19;;;;;;;8.00;1.80;;;;;;;;;;5112927;28;20742;-75
2023/04/27 12:47:44;;;;;;;3.85;1.13;;;;;;;;;;5113588;28;20031;-76
2023/04/27 12:50:10;;;;;;;4.40;1.88;;;;;;;;;;5113911;28;20027;-76
2023/04/27 12:52:35;;;;;;;4.85;1.27;;;;;;;;;;5113709;28;20046;-70
2023/04/27 12:55:01;;;;;;;2.60;1.05;;;;;;;;;;5113162;28;20023;-73
2023/04/27 12:57:26;;;;;;;3.95;1.25;;;;;;;;;;5114516;28;20016;-79
2023/04/27 12:59:52;;;;;;;2.75;1.02;;;;;;;;;;5115545;28;20030;-77
2023/04/27 13:02:17;;;;;;;2.38;0.98;;;;;;;;;;5115238;28;20061;-78
2023/04/27 13:04:43;;;;;;;5.30;1.05;;;;;;;;;;5114458;28;20378;-77
2023/04/27 13:07:08;;;;;;;3.35;1.05;;;;;;;;;;5114424;28;20036;-78
2023/04/27 13:09:35;;;;;;;6.68;1.52;;;;;;;;;;5114479;28;20028;-75
2023/04/27 13:12:00;;;;;;;2.22;1.10;;;;;;;;;;5114499;28;20026;-76
2023/04/27 13:14:27;;;;;;;2.88;0.90;;;;;;;;;;5114556;28;20028;-71
2023/04/27 13:16:53;;;;;;;1.50;0.93;;;;;;;;;;5114905;28;20024;-79
2023/04/27 13:19:18;;;;;;;2.15;1.10;;;;;;;;;;5114732;28;20035;-77
2023/04/27 13:21:44;;;;;;;3.15;1.00;;;;;;;;;;5114893;28;20158;-80
2023/04/27 13:24:09;;;;;;;6.90;1.85;;;;;;;;;;5114520;28;20032;-79
2023/04/27 13:26:35;;;;;;;6.20;1.33;;;;;;;;;;5114631;28;20034;-76
2023/04/27 13:29:03;;;;;;;2.28;1.00;;;;;;;;;;5096348;28;20502;-78
2023/04/27 13:31:30;;;;;;;5.90;1.10;;;;;;;;;;5114396;28;20409;-76
2023/04/27 13:33:56;;;;;;;3.58;1.20;;;;;;;;;;5114106;28;20037;-76
2023/04/27 13:36:21;;;;;;;5.18;0.98;;;;;;;;;;5114111;28;20122;-76
2023/04/27 13:38:47;;;;;;;4.38;1.15;;;;;;;;;;5113855;28;20024;-75
2023/04/27 13:41:12;;;;;;;5.00;1.30;;;;;;;;;;5114657;28;20019;-69
2023/04/27 13:43:38;;;;;;;3.45;1.20;;;;;;;;;;5114610;28;20035;-76
2023/04/27 13:46:03;;;;;;;3.38;1.38;;;;;;;;;;5114031;28;20020;-78
2023/04/27 13:48:29;;;;;;;5.03;1.50;;;;;;;;;;5114170;28;20023;-74
2023/04/27 13:50:55;;;;;;;1.80;1.00;;;;;;;;;;5114027;28;20115;-77
2023/04/27 13:53:24;;;;;;;5.43;1.50;;;;;;;;;;5113577;28;20024;-77
2023/04/27 13:55:51;;;;;;;4.28;1.35;;;;;;;;;;5113925;28;20028;-78
2023/04/27 13:58:16;;;;;;;5.18;1.48;;;;;;;;;;5114272;28;20028;-75
2023/04/27 14:00:42;;;;;;;7.22;1.73;;;;;;;;;;5113423;28;20020;-64
2023/04/27 14:03:07;;;;;;;10.63;1.65;;;;;;;;;;5113858;28;20360;-78
2023/04/27 14:05:33;;;;;;;4.60;1.27;;;;;;;;;;5114051;28;20438;-75
2023/04/27 14:07:58;;;;;;;4.70;1.30;;;;;;;;;;5113334;28;20513;-76
2023/04/27 14:10:24;;;;;;;3.20;1.38;;;;;;;;;;5113775;28;20484;-70
2023/04/27 14:12:49;;;;;;;3.40;1.60;;;;;;;;;;5113912;28;20016;-74
2023/04/27 14:15:15;;;;;;;5.78;1.70;;;;;;;;;;5113954;28;20367;-76
2023/04/27 14:17:41;;;;;;;6.40;1.60;;;;;;;;;;5113163;28;20020;-76
2023/04/27 14:20:07;;;;;;;3.85;0.98;;;;;;;;;;5114404;28;20057;-75
2023/04/27 14:22:34;;;;;;;2.60;1.30;;;;;;;;;;5113215;28;20055;-72
2023/04/27 14:24:59;;;;;;;2.63;1.00;;;;;;;;;;5113186;28;20012;-70
2023/04/27 14:27:24;;;;;;;3.05;1.10;;;;;;;;;;5113526;28;20023;-74
2023/04/27 14:29:50;;;;;;;3.42;0.93;;;;;;;;;;5113101;28;20032;-73
2023/04/27 14:32:16;;;;;;;2.50;1.27;;;;;;;;;;5113112;28;20055;-76
2023/04/27 14:34:41;;;;;;;2.13;1.13;;;;;;;;;;5113129;28;20032;-78
2023/04/27 14:37:07;;;;;;;4.43;1.10;;;;;;;;;;5112074;28;20039;-73